sensor_id;sensor_type;location;lat;lon;timestamp;temperature;humidity
2639;DHT22;1329;51.384;7.122;2023-07-08T00:00:20;22.80;1.00
2639;DHT22;1329;51.384;7.122;2023-07-08T00:02:48;22.80;1.00
2639;DHT22;1329;51.384;7.122;2023-07-08T00:05:17;22.80;1.00
2639;DHT22;1329;51.384;7.122;2023-07-08T00:07:45;22.90;1.00
2639;DHT22;1329;51.384;7.122;2023-07-08T00:10:18;22.90;1.00
2639;DHT22;1329;51.384;7.122;2023-07-08T00:12:49;22.90;1.00
2639;DHT22;1329;51.384;7.122;2023-07-08T00:15:18;22.90;1.00
2639;DHT22;1329;51.384;7.122;2023-07-08T00:17:45;22.90;1.00
2639;DHT22;1329;51.384;7.122;2023-07-08T00:20:14;22.90;1.00
2639;DHT22;1329;51.384;7.122;2023-07-08T00:22:43;22.90;1.00
2639;DHT22;1329;51.384;7.122;2023-07-08T00:25:14;22.90;1.00
2639;DHT22;1329;51.384;7.122;2023-07-08T00:27:41;23.00;1.00
2639;DHT22;1329;51.384;7.122;2023-07-08T00:30:22;23.00;1.00
2639;DHT22;1329;51.384;7.122;2023-07-08T00:32:50;23.00;1.00
2639;DHT22;1329;51.384;7.122;2023-07-08T00:35:31;23.00;1.00
2639;DHT22;1329;51.384;7.122;2023-07-08T00:38:00;23.00;1.00
2639;DHT22;1329;51.384;7.122;2023-07-08T00:40:30;23.10;1.00
2639;DHT22;1329;51.384;7.122;2023-07-08T00:43:00;23.10;1.00
2639;DHT22;1329;51.384;7.122;2023-07-08T00:45:35;23.10;1.00
2639;DHT22;1329;51.384;7.122;2023-07-08T00:48:11;23.10;1.00
2639;DHT22;1329;51.384;7.122;2023-07-08T00:50:43;23.10;1.00
2639;DHT22;1329;51.384;7.122;2023-07-08T00:53:31;23.10;1.00
2639;DHT22;1329;51.384;7.122;2023-07-08T00:56:02;23.10;1.00
2639;DHT22;1329;51.384;7.122;2023-07-08T00:58:33;23.10;1.00
2639;DHT22;1329;51.384;7.122;2023-07-08T01:01:06;23.10;1.00
2639;DHT22;1329;51.384;7.122;2023-07-08T01:03:37;23.10;1.00
2639;DHT22;1329;51.384;7.122;2023-07-08T01:06:09;23.10;1.00
2639;DHT22;1329;51.384;7.122;2023-07-08T01:08:36;23.20;1.00
2639;DHT22;1329;51.384;7.122;2023-07-08T01:11:05;23.20;1.00
2639;DHT22;1329;51.384;7.122;2023-07-08T01:13:34;23.20;1.00
2639;DHT22;1329;51.384;7.122;2023-07-08T01:16:04;23.10;1.00
2639;DHT22;1329;51.384;7.122;2023-07-08T01:18:32;23.10;1.00
2639;DHT22;1329;51.384;7.122;2023-07-08T01:21:02;23.10;1.00
2639;DHT22;1329;51.384;7.122;2023-07-08T01:23:34;23.10;1.00
2639;DHT22;1329;51.384;7.122;2023-07-08T01:26:02;23.10;1.00
2639;DHT22;1329;51.384;7.122;2023-07-08T01:28:30;23.10;1.00
2639;DHT22;1329;51.384;7.122;2023-07-08T01:30:57;23.10;1.00
2639;DHT22;1329;51.384;7.122;2023-07-08T01:33:24;23.10;1.00
2639;DHT22;1329;51.384;7.122;2023-07-08T01:35:52;23.00;1.00
2639;DHT22;1329;51.384;7.122;2023-07-08T01:38:24;23.00;1.00
2639;DHT22;1329;51.384;7.122;2023-07-08T01:40:55;23.00;1.00
2639;DHT22;1329;51.384;7.122;2023-07-08T01:43:23;23.00;1.00
2639;DHT22;1329;51.384;7.122;2023-07-08T01:45:51;23.00;1.00
2639;DHT22;1329;51.384;7.122;2023-07-08T01:48:20;23.00;1.00
2639;DHT22;1329;51.384;7.122;2023-07-08T01:50:50;23.00;1.00
2639;DHT22;1329;51.384;7.122;2023-07-08T01:53:29;22.90;1.00
2639;DHT22;1329;51.384;7.122;2023-07-08T01:55:59;22.90;1.00
2639;DHT22;1329;51.384;7.122;2023-07-08T01:58:26;22.90;1.00
2639;DHT22;1329;51.384;7.122;2023-07-08T02:00:53;22.90;1.00
2639;DHT22;1329;51.384;7.122;2023-07-08T02:03:20;22.80;1.00
2639;DHT22;1329;51.384;7.122;2023-07-08T02:05:47;22.80;1.00
2639;DHT22;1329;51.384;7.122;2023-07-08T02:08:14;22.70;1.00
2639;DHT22;1329;51.384;7.122;2023-07-08T02:10:42;22.70;1.00
2639;DHT22;1329;51.384;7.122;2023-07-08T02:13:11;22.60;1.00
2639;DHT22;1329;51.384;7.122;2023-07-08T02:15:38;22.60;1.00
2639;DHT22;1329;51.384;7.122;2023-07-08T02:18:05;22.50;1.00
2639;DHT22;1329;51.384;7.122;2023-07-08T02:20:32;22.50;1.00
2639;DHT22;1329;51.384;7.122;2023-07-08T02:22:59;22.50;1.00
2639;DHT22;1329;51.384;7.122;2023-07-08T02:25:25;22.40;1.00
2639;DHT22;1329;51.384;7.122;2023-07-08T02:27:55;22.40;1.00
2639;DHT22;1329;51.384;7.122;2023-07-08T02:30:31;22.40;1.00
2639;DHT22;1329;51.384;7.122;2023-07-08T02:32:58;22.40;1.00
2639;DHT22;1329;51.384;7.122;2023-07-08T02:35:26;22.30;1.00
2639;DHT22;1329;51.384;7.122;2023-07-08T02:37:55;22.30;1.00
2639;DHT22;1329;51.384;7.122;2023-07-08T02:40:23;22.30;1.00
2639;DHT22;1329;51.384;7.122;2023-07-08T02:42:50;22.30;1.00
2639;DHT22;1329;51.384;7.122;2023-07-08T02:45:18;22.30;1.00
2639;DHT22;1329;51.384;7.122;2023-07-08T02:47:47;22.30;1.00
2639;DHT22;1329;51.384;7.122;2023-07-08T02:50:14;22.30;1.00
2639;DHT22;1329;51.384;7.122;2023-07-08T02:52:42;22.20;1.00
2639;DHT22;1329;51.384;7.122;2023-07-08T02:55:09;22.30;1.00
2639;DHT22;1329;51.384;7.122;2023-07-08T02:57:36;22.30;1.00
2639;DHT22;1329;51.384;7.122;2023-07-08T03:00:04;22.20;1.00
2639;DHT22;1329;51.384;7.122;2023-07-08T03:02:32;22.20;1.00
2639;DHT22;1329;51.384;7.122;2023-07-08T03:05:01;22.20;1.00
2639;DHT22;1329;51.384;7.122;2023-07-08T03:07:30;22.20;1.00
2639;DHT22;1329;51.384;7.122;2023-07-08T03:09:57;22.20;1.00
2639;DHT22;1329;51.384;7.122;2023-07-08T03:12:24;22.20;1.00
2639;DHT22;1329;51.384;7.122;2023-07-08T03:14:51;22.20;1.00
2639;DHT22;1329;51.384;7.122;2023-07-08T03:17:18;22.20;1.00
2639;DHT22;1329;51.384;7.122;2023-07-08T03:19:45;22.20;1.00
2639;DHT22;1329;51.384;7.122;2023-07-08T03:22:13;22.20;1.00
2639;DHT22;1329;51.384;7.122;2023-07-08T03:24:40;22.20;1.00
2639;DHT22;1329;51.384;7.122;2023-07-08T03:27:12;22.20;1.00
2639;DHT22;1329;51.384;7.122;2023-07-08T03:29:39;22.20;1.00
2639;DHT22;1329;51.384;7.122;2023-07-08T03:32:09;22.20;1.00
2639;DHT22;1329;51.384;7.122;2023-07-08T03:34:37;22.20;1.00
2639;DHT22;1329;51.384;7.122;2023-07-08T03:37:08;22.20;1.00
2639;DHT22;1329;51.384;7.122;2023-07-08T03:39:37;22.20;1.00
2639;DHT22;1329;51.384;7.122;2023-07-08T03:42:05;22.20;1.00
2639;DHT22;1329;51.384;7.122;2023-07-08T03:44:32;22.10;1.00
2639;DHT22;1329;51.384;7.122;2023-07-08T03:46:59;22.10;1.00
2639;DHT22;1329;51.384;7.122;2023-07-08T03:49:26;22.10;1.00
2639;DHT22;1329;51.384;7.122;2023-07-08T03:51:54;22.00;1.00
2639;DHT22;1329;51.384;7.122;2023-07-08T03:54:23;22.00;1.00
2639;DHT22;1329;51.384;7.122;2023-07-08T03:56:52;22.00;1.00
2639;DHT22;1329;51.384;7.122;2023-07-08T03:59:19;22.00;1.00
2639;DHT22;1329;51.384;7.122;2023-07-08T04:01:46;21.90;1.00
2639;DHT22;1329;51.384;7.122;2023-07-08T04:04:14;21.90;1.00
2639;DHT22;1329;51.384;7.122;2023-07-08T04:06:42;21.80;1.00
2639;DHT22;1329;51.384;7.122;2023-07-08T04:09:10;21.80;1.00
2639;DHT22;1329;51.384;7.122;2023-07-08T04:11:37;21.80;1.00
2639;DHT22;1329;51.384;7.122;2023-07-08T04:14:06;21.80;1.00
2639;DHT22;1329;51.384;7.122;2023-07-08T04:16:43;21.70;1.00
2639;DHT22;1329;51.384;7.122;2023-07-08T04:19:13;21.70;1.00
2639;DHT22;1329;51.384;7.122;2023-07-08T04:21:41;21.60;1.00
2639;DHT22;1329;51.384;7.122;2023-07-08T04:24:09;21.60;1.00
2639;DHT22;1329;51.384;7.122;2023-07-08T04:26:37;21.60;1.00
2639;DHT22;1329;51.384;7.122;2023-07-08T04:29:09;21.50;1.00
2639;DHT22;1329;51.384;7.122;2023-07-08T04:31:37;21.50;1.00
2639;DHT22;1329;51.384;7.122;2023-07-08T04:34:04;21.50;1.00
2639;DHT22;1329;51.384;7.122;2023-07-08T04:36:32;21.50;1.00
2639;DHT22;1329;51.384;7.122;2023-07-08T04:39:00;21.50;1.00
2639;DHT22;1329;51.384;7.122;2023-07-08T04:41:27;21.50;1.00
2639;DHT22;1329;51.384;7.122;2023-07-08T04:43:54;21.50;1.00
2639;DHT22;1329;51.384;7.122;2023-07-08T04:46:29;21.50;1.00
2639;DHT22;1329;51.384;7.122;2023-07-08T04:49:00;21.50;1.00
2639;DHT22;1329;51.384;7.122;2023-07-08T04:51:28;21.50;1.00
2639;DHT22;1329;51.384;7.122;2023-07-08T04:53:55;21.50;1.00
2639;DHT22;1329;51.384;7.122;2023-07-08T04:56:22;21.50;1.00
2639;DHT22;1329;51.384;7.122;2023-07-08T04:58:49;21.50;1.00
2639;DHT22;1329;51.384;7.122;2023-07-08T05:01:16;21.50;1.00
2639;DHT22;1329;51.384;7.122;2023-07-08T05:03:45;21.50;1.00
2639;DHT22;1329;51.384;7.122;2023-07-08T05:06:11;21.50;1.00
2639;DHT22;1329;51.384;7.122;2023-07-08T05:08:38;21.50;1.00
2639;DHT22;1329;51.384;7.122;2023-07-08T05:11:06;21.50;1.00
2639;DHT22;1329;51.384;7.122;2023-07-08T05:13:32;21.50;1.00
2639;DHT22;1329;51.384;7.122;2023-07-08T05:15:59;21.50;1.00
2639;DHT22;1329;51.384;7.122;2023-07-08T05:18:26;21.50;1.00
2639;DHT22;1329;51.384;7.122;2023-07-08T05:20:55;21.50;1.00
2639;DHT22;1329;51.384;7.122;2023-07-08T05:23:22;21.50;1.00
2639;DHT22;1329;51.384;7.122;2023-07-08T05:25:50;21.50;1.00
2639;DHT22;1329;51.384;7.122;2023-07-08T05:28:17;21.50;1.00
2639;DHT22;1329;51.384;7.122;2023-07-08T05:30:45;21.50;1.00
2639;DHT22;1329;51.384;7.122;2023-07-08T05:33:11;21.50;1.00
2639;DHT22;1329;51.384;7.122;2023-07-08T05:35:38;21.50;1.00
2639;DHT22;1329;51.384;7.122;2023-07-08T05:38:07;21.50;1.00
2639;DHT22;1329;51.384;7.122;2023-07-08T05:40:33;21.50;1.00
2639;DHT22;1329;51.384;7.122;2023-07-08T05:43:00;21.60;1.00
2639;DHT22;1329;51.384;7.122;2023-07-08T05:45:27;21.60;1.00
2639;DHT22;1329;51.384;7.122;2023-07-08T05:47:54;21.60;1.00
2639;DHT22;1329;51.384;7.122;2023-07-08T05:50:21;21.70;1.00
2639;DHT22;1329;51.384;7.122;2023-07-08T05:52:48;21.70;1.00
2639;DHT22;1329;51.384;7.122;2023-07-08T05:55:16;21.70;1.00
2639;DHT22;1329;51.384;7.122;2023-07-08T05:57:43;21.80;1.00
2639;DHT22;1329;51.384;7.122;2023-07-08T06:00:10;21.80;1.00
2639;DHT22;1329;51.384;7.122;2023-07-08T06:02:38;21.90;1.00
2639;DHT22;1329;51.384;7.122;2023-07-08T06:05:05;21.90;1.00
2639;DHT22;1329;51.384;7.122;2023-07-08T06:07:33;21.90;1.00
2639;DHT22;1329;51.384;7.122;2023-07-08T06:10:00;21.90;1.00
2639;DHT22;1329;51.384;7.122;2023-07-08T06:12:29;22.00;1.00
2639;DHT22;1329;51.384;7.122;2023-07-08T06:14:56;22.00;1.00
2639;DHT22;1329;51.384;7.122;2023-07-08T06:17:23;22.10;1.00
2639;DHT22;1329;51.384;7.122;2023-07-08T06:19:50;22.10;1.00
2639;DHT22;1329;51.384;7.122;2023-07-08T06:22:17;22.20;1.00
2639;DHT22;1329;51.384;7.122;2023-07-08T06:24:43;22.20;1.00
2639;DHT22;1329;51.384;7.122;2023-07-08T06:27:12;22.30;1.00
2639;DHT22;1329;51.384;7.122;2023-07-08T06:29:41;22.30;1.00
2639;DHT22;1329;51.384;7.122;2023-07-08T06:32:08;22.40;1.00
2639;DHT22;1329;51.384;7.122;2023-07-08T06:34:35;22.50;1.00
2639;DHT22;1329;51.384;7.122;2023-07-08T06:37:02;22.50;1.00
2639;DHT22;1329;51.384;7.122;2023-07-08T06:39:30;22.60;1.00
2639;DHT22;1329;51.384;7.122;2023-07-08T06:41:56;22.60;1.00
2639;DHT22;1329;51.384;7.122;2023-07-08T06:44:23;22.70;1.00
2639;DHT22;1329;51.384;7.122;2023-07-08T06:46:52;22.80;1.00
2639;DHT22;1329;51.384;7.122;2023-07-08T06:49:19;22.80;1.00
2639;DHT22;1329;51.384;7.122;2023-07-08T06:51:46;22.90;1.00
2639;DHT22;1329;51.384;7.122;2023-07-08T06:54:13;22.90;1.00
2639;DHT22;1329;51.384;7.122;2023-07-08T06:56:40;23.00;1.00
2639;DHT22;1329;51.384;7.122;2023-07-08T06:59:10;23.00;1.00
2639;DHT22;1329;51.384;7.122;2023-07-08T07:01:37;23.10;1.00
2639;DHT22;1329;51.384;7.122;2023-07-08T07:04:05;23.20;1.00
2639;DHT22;1329;51.384;7.122;2023-07-08T07:06:32;23.30;1.00
2639;DHT22;1329;51.384;7.122;2023-07-08T07:08:59;23.30;1.00
2639;DHT22;1329;51.384;7.122;2023-07-08T07:11:26;23.40;1.00
2639;DHT22;1329;51.384;7.122;2023-07-08T07:13:53;23.50;1.00
2639;DHT22;1329;51.384;7.122;2023-07-08T07:16:20;23.60;1.00
2639;DHT22;1329;51.384;7.122;2023-07-08T07:18:47;23.70;1.00
2639;DHT22;1329;51.384;7.122;2023-07-08T07:21:16;23.70;1.00
2639;DHT22;1329;51.384;7.122;2023-07-08T07:23:43;23.80;1.00
2639;DHT22;1329;51.384;7.122;2023-07-08T07:26:11;23.90;1.00
2639;DHT22;1329;51.384;7.122;2023-07-08T07:28:38;23.90;1.00
2639;DHT22;1329;51.384;7.122;2023-07-08T07:31:05;24.00;1.00
2639;DHT22;1329;51.384;7.122;2023-07-08T07:33:33;24.10;1.00
2639;DHT22;1329;51.384;7.122;2023-07-08T07:36:00;24.10;1.00
2639;DHT22;1329;51.384;7.122;2023-07-08T07:38:29;24.20;1.00
2639;DHT22;1329;51.384;7.122;2023-07-08T07:40:56;24.20;1.00
2639;DHT22;1329;51.384;7.122;2023-07-08T07:43:26;24.30;1.00
2639;DHT22;1329;51.384;7.122;2023-07-08T07:45:53;24.40;1.00
2639;DHT22;1329;51.384;7.122;2023-07-08T07:48:20;24.50;1.00
2639;DHT22;1329;51.384;7.122;2023-07-08T07:50:48;24.50;1.00
2639;DHT22;1329;51.384;7.122;2023-07-08T07:53:17;24.60;1.00
2639;DHT22;1329;51.384;7.122;2023-07-08T07:55:46;24.80;1.00
2639;DHT22;1329;51.384;7.122;2023-07-08T07:58:12;24.90;1.00
2639;DHT22;1329;51.384;7.122;2023-07-08T08:00:40;25.00;1.00
2639;DHT22;1329;51.384;7.122;2023-07-08T08:03:07;25.10;1.00
2639;DHT22;1329;51.384;7.122;2023-07-08T08:05:33;25.20;1.00
2639;DHT22;1329;51.384;7.122;2023-07-08T08:08:00;25.30;1.00
2639;DHT22;1329;51.384;7.122;2023-07-08T08:10:29;25.40;1.00
2639;DHT22;1329;51.384;7.122;2023-07-08T08:12:59;25.50;1.00
2639;DHT22;1329;51.384;7.122;2023-07-08T08:15:26;25.60;1.00
2639;DHT22;1329;51.384;7.122;2023-07-08T08:17:53;25.60;1.00
2639;DHT22;1329;51.384;7.122;2023-07-08T08:20:25;25.70;1.00
2639;DHT22;1329;51.384;7.122;2023-07-08T08:22:52;25.70;1.00
2639;DHT22;1329;51.384;7.122;2023-07-08T08:25:21;25.80;1.00
2639;DHT22;1329;51.384;7.122;2023-07-08T08:27:50;25.90;1.00
2639;DHT22;1329;51.384;7.122;2023-07-08T08:30:19;25.90;1.00
2639;DHT22;1329;51.384;7.122;2023-07-08T08:32:46;26.00;1.00
2639;DHT22;1329;51.384;7.122;2023-07-08T08:35:13;26.10;1.00
2639;DHT22;1329;51.384;7.122;2023-07-08T08:37:39;26.20;1.00
2639;DHT22;1329;51.384;7.122;2023-07-08T08:40:11;26.30;1.00
2639;DHT22;1329;51.384;7.122;2023-07-08T08:42:42;26.40;1.00
2639;DHT22;1329;51.384;7.122;2023-07-08T08:45:15;26.40;1.00
2639;DHT22;1329;51.384;7.122;2023-07-08T08:47:48;26.50;1.00
2639;DHT22;1329;51.384;7.122;2023-07-08T08:50:26;26.50;1.00
2639;DHT22;1329;51.384;7.122;2023-07-08T08:52:57;26.60;1.00
2639;DHT22;1329;51.384;7.122;2023-07-08T08:55:27;26.60;1.00
2639;DHT22;1329;51.384;7.122;2023-07-08T08:58:02;26.60;1.00
2639;DHT22;1329;51.384;7.122;2023-07-08T09:00:49;26.70;1.00
2639;DHT22;1329;51.384;7.122;2023-07-08T09:03:30;26.80;1.00
2639;DHT22;1329;51.384;7.122;2023-07-08T09:06:04;26.90;1.00
2639;DHT22;1329;51.384;7.122;2023-07-08T09:08:36;27.00;1.00
2639;DHT22;1329;51.384;7.122;2023-07-08T09:11:13;27.20;1.00
2639;DHT22;1329;51.384;7.122;2023-07-08T09:13:46;27.50;1.00
2639;DHT22;1329;51.384;7.122;2023-07-08T09:16:18;27.70;1.00
2639;DHT22;1329;51.384;7.122;2023-07-08T09:18:58;28.10;1.00
2639;DHT22;1329;51.384;7.122;2023-07-08T09:21:30;28.40;1.00
2639;DHT22;1329;51.384;7.122;2023-07-08T09:24:02;28.80;1.00
2639;DHT22;1329;51.384;7.122;2023-07-08T09:26:34;29.10;1.00
2639;DHT22;1329;51.384;7.122;2023-07-08T09:29:01;29.40;1.00
2639;DHT22;1329;51.384;7.122;2023-07-08T09:31:31;29.80;1.00
2639;DHT22;1329;51.384;7.122;2023-07-08T09:34:11;30.20;1.00
2639;DHT22;1329;51.384;7.122;2023-07-08T09:36:40;30.60;1.00
2639;DHT22;1329;51.384;7.122;2023-07-08T09:39:11;31.10;1.00
2639;DHT22;1329;51.384;7.122;2023-07-08T09:41:39;31.40;1.00
2639;DHT22;1329;51.384;7.122;2023-07-08T09:44:18;31.80;1.00
2639;DHT22;1329;51.384;7.122;2023-07-08T09:46:51;32.20;1.00
2639;DHT22;1329;51.384;7.122;2023-07-08T09:49:27;32.40;1.00
2639;DHT22;1329;51.384;7.122;2023-07-08T09:51:55;32.60;1.00
2639;DHT22;1329;51.384;7.122;2023-07-08T09:54:24;32.80;1.00
2639;DHT22;1329;51.384;7.122;2023-07-08T09:56:58;32.70;1.00
2639;DHT22;1329;51.384;7.122;2023-07-08T09:59:30;32.70;1.00
2639;DHT22;1329;51.384;7.122;2023-07-08T10:02:24;32.70;1.00
2639;DHT22;1329;51.384;7.122;2023-07-08T10:04:57;32.70;1.00
2639;DHT22;1329;51.384;7.122;2023-07-08T10:07:28;32.70;1.00
2639;DHT22;1329;51.384;7.122;2023-07-08T10:09:59;32.70;1.00
2639;DHT22;1329;51.384;7.122;2023-07-08T10:12:30;32.60;1.00
2639;DHT22;1329;51.384;7.122;2023-07-08T10:15:00;32.60;1.00
2639;DHT22;1329;51.384;7.122;2023-07-08T10:17:29;32.50;1.00
2639;DHT22;1329;51.384;7.122;2023-07-08T10:19:58;32.50;1.00
2639;DHT22;1329;51.384;7.122;2023-07-08T10:22:35;32.30;1.00
2639;DHT22;1329;51.384;7.122;2023-07-08T10:25:13;32.40;1.00
2639;DHT22;1329;51.384;7.122;2023-07-08T10:27:57;32.40;1.00
2639;DHT22;1329;51.384;7.122;2023-07-08T10:30:31;32.40;1.00
2639;DHT22;1329;51.384;7.122;2023-07-08T10:33:14;32.40;1.00
2639;DHT22;1329;51.384;7.122;2023-07-08T10:35:58;32.40;1.00
2639;DHT22;1329;51.384;7.122;2023-07-08T10:38:41;32.50;1.00
2639;DHT22;1329;51.384;7.122;2023-07-08T10:41:18;32.60;1.00
2639;DHT22;1329;51.384;7.122;2023-07-08T10:43:58;32.50;1.00
2639;DHT22;1329;51.384;7.122;2023-07-08T10:46:38;32.50;1.00
2639;DHT22;1329;51.384;7.122;2023-07-08T10:49:42;32.60;1.00
2639;DHT22;1329;51.384;7.122;2023-07-08T10:52:33;32.60;1.00
2639;DHT22;1329;51.384;7.122;2023-07-08T10:55:14;32.60;1.00
2639;DHT22;1329;51.384;7.122;2023-07-08T11:01:04;32.60;1.00
2639;DHT22;1329;51.384;7.122;2023-07-08T11:03:46;32.60;1.00
2639;DHT22;1329;51.384;7.122;2023-07-08T11:06:25;32.60;1.00
2639;DHT22;1329;51.384;7.122;2023-07-08T11:09:02;32.60;1.00
2639;DHT22;1329;51.384;7.122;2023-07-08T11:11:34;32.50;1.00
2639;DHT22;1329;51.384;7.122;2023-07-08T11:14:14;32.60;1.00
2639;DHT22;1329;51.384;7.122;2023-07-08T11:16:47;32.60;1.00
2639;DHT22;1329;51.384;7.122;2023-07-08T11:19:21;32.50;1.00
2639;DHT22;1329;51.384;7.122;2023-07-08T11:21:53;32.50;1.00
2639;DHT22;1329;51.384;7.122;2023-07-08T11:24:30;32.60;1.00
2639;DHT22;1329;51.384;7.122;2023-07-08T11:27:04;32.60;1.00
2639;DHT22;1329;51.384;7.122;2023-07-08T11:29:37;32.60;1.00
2639;DHT22;1329;51.384;7.122;2023-07-08T11:32:12;32.60;1.00
2639;DHT22;1329;51.384;7.122;2023-07-08T11:34:43;32.70;1.00
2639;DHT22;1329;51.384;7.122;2023-07-08T11:37:12;32.70;1.00
2639;DHT22;1329;51.384;7.122;2023-07-08T11:39:43;32.70;1.00
2639;DHT22;1329;51.384;7.122;2023-07-08T11:42:16;32.70;1.00
2639;DHT22;1329;51.384;7.122;2023-07-08T11:44:50;32.70;1.00
2639;DHT22;1329;51.384;7.122;2023-07-08T11:47:21;32.90;1.00
2639;DHT22;1329;51.384;7.122;2023-07-08T11:49:52;32.90;1.00
2639;DHT22;1329;51.384;7.122;2023-07-08T11:52:22;32.90;1.00
2639;DHT22;1329;51.384;7.122;2023-07-08T11:55:03;33.00;1.00
2639;DHT22;1329;51.384;7.122;2023-07-08T11:57:53;33.10;1.00
2639;DHT22;1329;51.384;7.122;2023-07-08T12:00:25;33.30;1.00
2639;DHT22;1329;51.384;7.122;2023-07-08T12:02:55;33.20;1.00
2639;DHT22;1329;51.384;7.122;2023-07-08T12:05:34;33.30;1.00
2639;DHT22;1329;51.384;7.122;2023-07-08T12:08:03;33.40;1.00
2639;DHT22;1329;51.384;7.122;2023-07-08T12:10:41;33.40;1.00
2639;DHT22;1329;51.384;7.122;2023-07-08T12:13:14;33.40;1.00
2639;DHT22;1329;51.384;7.122;2023-07-08T12:15:42;33.50;1.00
2639;DHT22;1329;51.384;7.122;2023-07-08T12:18:13;33.60;1.00
2639;DHT22;1329;51.384;7.122;2023-07-08T12:20:45;33.60;1.00
2639;DHT22;1329;51.384;7.122;2023-07-08T12:23:15;33.70;1.00
2639;DHT22;1329;51.384;7.122;2023-07-08T12:25:45;33.80;1.00
2639;DHT22;1329;51.384;7.122;2023-07-08T12:28:14;33.80;1.00
2639;DHT22;1329;51.384;7.122;2023-07-08T12:30:43;34.00;1.00
2639;DHT22;1329;51.384;7.122;2023-07-08T12:33:13;34.00;1.00
2639;DHT22;1329;51.384;7.122;2023-07-08T12:35:41;34.00;1.00
2639;DHT22;1329;51.384;7.122;2023-07-08T12:38:18;34.10;1.00
2639;DHT22;1329;51.384;7.122;2023-07-08T12:40:48;34.20;1.00
2639;DHT22;1329;51.384;7.122;2023-07-08T12:43:15;34.30;1.00
2639;DHT22;1329;51.384;7.122;2023-07-08T12:45:44;34.30;1.00
2639;DHT22;1329;51.384;7.122;2023-07-08T12:48:10;34.40;1.00
2639;DHT22;1329;51.384;7.122;2023-07-08T12:50:37;34.50;1.00
2639;DHT22;1329;51.384;7.122;2023-07-08T12:53:05;34.60;1.00
2639;DHT22;1329;51.384;7.122;2023-07-08T12:55:36;34.60;1.00
2639;DHT22;1329;51.384;7.122;2023-07-08T12:58:09;34.70;1.00
2639;DHT22;1329;51.384;7.122;2023-07-08T13:00:41;34.80;1.00
2639;DHT22;1329;51.384;7.122;2023-07-08T13:03:14;34.80;1.00
2639;DHT22;1329;51.384;7.122;2023-07-08T13:05:43;34.80;1.00
2639;DHT22;1329;51.384;7.122;2023-07-08T13:08:11;34.90;1.00
2639;DHT22;1329;51.384;7.122;2023-07-08T13:10:39;35.00;1.00
2639;DHT22;1329;51.384;7.122;2023-07-08T13:13:12;35.10;1.00
2639;DHT22;1329;51.384;7.122;2023-07-08T13:15:42;35.10;1.00
2639;DHT22;1329;51.384;7.122;2023-07-08T13:18:14;35.20;1.00
2639;DHT22;1329;51.384;7.122;2023-07-08T13:20:43;35.30;1.00
2639;DHT22;1329;51.384;7.122;2023-07-08T13:23:12;35.30;1.00
2639;DHT22;1329;51.384;7.122;2023-07-08T13:25:39;35.40;1.00
2639;DHT22;1329;51.384;7.122;2023-07-08T13:28:17;35.40;1.00
2639;DHT22;1329;51.384;7.122;2023-07-08T13:30:52;35.50;1.00
2639;DHT22;1329;51.384;7.122;2023-07-08T13:33:21;35.50;1.00
2639;DHT22;1329;51.384;7.122;2023-07-08T13:35:50;35.60;1.00
2639;DHT22;1329;51.384;7.122;2023-07-08T13:38:19;35.70;1.00
2639;DHT22;1329;51.384;7.122;2023-07-08T13:40:49;35.80;1.00
2639;DHT22;1329;51.384;7.122;2023-07-08T13:43:25;35.80;1.00
2639;DHT22;1329;51.384;7.122;2023-07-08T13:45:54;35.90;1.00
2639;DHT22;1329;51.384;7.122;2023-07-08T13:48:24;35.90;1.00
2639;DHT22;1329;51.384;7.122;2023-07-08T13:50:56;35.90;1.00
2639;DHT22;1329;51.384;7.122;2023-07-08T13:53:27;36.00;1.00
2639;DHT22;1329;51.384;7.122;2023-07-08T13:56:02;36.00;1.00
2639;DHT22;1329;51.384;7.122;2023-07-08T13:58:32;36.10;1.00
2639;DHT22;1329;51.384;7.122;2023-07-08T14:00:58;36.20;1.00
2639;DHT22;1329;51.384;7.122;2023-07-08T14:03:26;36.20;1.00
2639;DHT22;1329;51.384;7.122;2023-07-08T14:05:53;36.20;1.00
2639;DHT22;1329;51.384;7.122;2023-07-08T14:08:20;36.30;1.00
2639;DHT22;1329;51.384;7.122;2023-07-08T14:10:47;36.40;1.00
2639;DHT22;1329;51.384;7.122;2023-07-08T14:13:14;36.40;1.00
2639;DHT22;1329;51.384;7.122;2023-07-08T14:15:45;36.50;1.00
2639;DHT22;1329;51.384;7.122;2023-07-08T14:18:12;36.50;1.00
2639;DHT22;1329;51.384;7.122;2023-07-08T14:20:39;36.50;1.00
2639;DHT22;1329;51.384;7.122;2023-07-08T14:23:09;36.60;1.00
2639;DHT22;1329;51.384;7.122;2023-07-08T14:25:38;36.60;1.00
2639;DHT22;1329;51.384;7.122;2023-07-08T14:28:05;36.60;1.00
2639;DHT22;1329;51.384;7.122;2023-07-08T14:30:33;36.60;1.00
2639;DHT22;1329;51.384;7.122;2023-07-08T14:33:03;36.50;1.00
2639;DHT22;1329;51.384;7.122;2023-07-08T14:35:31;36.50;1.00
2639;DHT22;1329;51.384;7.122;2023-07-08T14:37:58;36.50;1.00
2639;DHT22;1329;51.384;7.122;2023-07-08T14:40:27;36.50;1.00
2639;DHT22;1329;51.384;7.122;2023-07-08T14:43:00;36.50;1.00
2639;DHT22;1329;51.384;7.122;2023-07-08T14:45:29;36.40;1.00
2639;DHT22;1329;51.384;7.122;2023-07-08T14:47:57;36.50;1.00
2639;DHT22;1329;51.384;7.122;2023-07-08T14:50:25;36.50;1.00
2639;DHT22;1329;51.384;7.122;2023-07-08T14:52:55;36.50;1.00
2639;DHT22;1329;51.384;7.122;2023-07-08T14:55:22;36.60;1.00
2639;DHT22;1329;51.384;7.122;2023-07-08T14:57:49;36.60;1.00
2639;DHT22;1329;51.384;7.122;2023-07-08T15:00:18;36.70;1.00
2639;DHT22;1329;51.384;7.122;2023-07-08T15:02:48;36.80;1.00
2639;DHT22;1329;51.384;7.122;2023-07-08T15:05:18;36.90;1.00
2639;DHT22;1329;51.384;7.122;2023-07-08T15:07:50;37.00;1.00
2639;DHT22;1329;51.384;7.122;2023-07-08T15:10:17;37.00;1.00
2639;DHT22;1329;51.384;7.122;2023-07-08T15:12:45;37.10;1.00
2639;DHT22;1329;51.384;7.122;2023-07-08T15:15:19;37.20;1.00
2639;DHT22;1329;51.384;7.122;2023-07-08T15:17:50;37.20;1.00
2639;DHT22;1329;51.384;7.122;2023-07-08T15:20:18;37.30;1.00
2639;DHT22;1329;51.384;7.122;2023-07-08T15:22:45;37.30;1.00
2639;DHT22;1329;51.384;7.122;2023-07-08T15:25:14;37.40;1.00
2639;DHT22;1329;51.384;7.122;2023-07-08T15:27:44;37.40;1.00
2639;DHT22;1329;51.384;7.122;2023-07-08T15:30:17;37.30;1.00
2639;DHT22;1329;51.384;7.122;2023-07-08T15:32:45;37.30;1.00
2639;DHT22;1329;51.384;7.122;2023-07-08T15:35:15;37.20;1.00
2639;DHT22;1329;51.384;7.122;2023-07-08T15:37:43;37.20;1.00
2639;DHT22;1329;51.384;7.122;2023-07-08T15:40:14;37.10;1.00
2639;DHT22;1329;51.384;7.122;2023-07-08T15:42:43;37.10;1.00
2639;DHT22;1329;51.384;7.122;2023-07-08T15:45:13;37.10;1.00
2639;DHT22;1329;51.384;7.122;2023-07-08T15:47:42;37.20;1.00
2639;DHT22;1329;51.384;7.122;2023-07-08T15:50:11;37.20;1.00
2639;DHT22;1329;51.384;7.122;2023-07-08T15:52:39;37.20;1.00
2639;DHT22;1329;51.384;7.122;2023-07-08T15:55:07;37.10;1.00
2639;DHT22;1329;51.384;7.122;2023-07-08T15:57:42;37.10;1.00
2639;DHT22;1329;51.384;7.122;2023-07-08T16:00:16;37.00;1.00
2639;DHT22;1329;51.384;7.122;2023-07-08T16:02:50;36.90;1.00
2639;DHT22;1329;51.384;7.122;2023-07-08T16:05:19;36.80;1.00
2639;DHT22;1329;51.384;7.122;2023-07-08T16:07:47;36.60;1.00
2639;DHT22;1329;51.384;7.122;2023-07-08T16:10:16;36.40;1.00
2639;DHT22;1329;51.384;7.122;2023-07-08T16:12:46;36.20;1.00
2639;DHT22;1329;51.384;7.122;2023-07-08T16:15:14;36.00;1.00
2639;DHT22;1329;51.384;7.122;2023-07-08T16:17:43;35.80;1.00
2639;DHT22;1329;51.384;7.122;2023-07-08T16:20:18;35.70;1.00
2639;DHT22;1329;51.384;7.122;2023-07-08T16:22:46;35.50;1.00
2639;DHT22;1329;51.384;7.122;2023-07-08T16:25:14;35.40;1.00
2639;DHT22;1329;51.384;7.122;2023-07-08T16:27:42;35.30;1.00
2639;DHT22;1329;51.384;7.122;2023-07-08T16:30:14;35.30;1.00
2639;DHT22;1329;51.384;7.122;2023-07-08T16:32:42;35.30;1.00
2639;DHT22;1329;51.384;7.122;2023-07-08T16:35:10;35.40;1.00
2639;DHT22;1329;51.384;7.122;2023-07-08T16:37:39;35.50;1.00